createdAt,value
2018-09-29T00:00:54.725Z,4.13
2018-09-29T00:05:59.195Z,2.97
2018-09-29T00:11:03.427Z,3.77
2018-09-29T00:16:08.131Z,3.10
2018-09-29T00:21:13.461Z,2.87
2018-09-29T00:26:17.614Z,3.20
2018-09-29T00:31:22.290Z,3.20
2018-09-29T00:36:26.737Z,2.90
2018-09-29T00:41:31.438Z,3.50
2018-09-29T00:46:35.711Z,3.20
2018-09-29T00:51:40.071Z,3.30
2018-09-29T00:56:45.986Z,2.60
2018-09-29T01:01:50.314Z,3.00
2018-09-29T01:06:55.395Z,3.30
2018-09-29T01:11:59.674Z,3.33
2018-09-29T01:17:03.807Z,3.07
2018-09-29T01:22:08.087Z,3.77
2018-09-29T01:27:12.461Z,3.10
2018-09-29T01:32:16.703Z,4.10
2018-09-29T01:37:20.982Z,3.50
2018-09-29T01:42:25.726Z,3.77
2018-09-29T01:47:31.476Z,3.77
2018-09-29T01:52:35.761Z,3.50
2018-09-29T01:57:39.962Z,3.20
2018-09-29T02:02:44.127Z,3.33
2018-09-29T02:07:48.384Z,2.97
2018-09-29T02:12:53.190Z,3.33
2018-09-29T02:17:57.480Z,3.20
2018-09-29T02:23:01.676Z,3.30
2018-09-29T02:28:05.884Z,3.80
2018-09-29T02:33:10.111Z,3.47
2018-09-29T02:38:14.777Z,3.50
2018-09-29T02:43:18.804Z,3.70
2018-09-29T02:48:23.808Z,4.27
2018-09-29T02:53:28.092Z,3.87
2018-09-29T02:58:32.610Z,3.43
2018-09-29T03:03:36.846Z,3.80
2018-09-29T03:08:41.186Z,3.80
2018-09-29T03:13:45.496Z,3.77
2018-09-29T03:18:50.078Z,3.60
2018-09-29T03:23:54.286Z,3.70
2018-09-29T03:28:58.783Z,2.93
2018-09-29T03:34:03.506Z,3.57
2018-09-29T03:39:10.262Z,3.30
2018-09-29T03:44:14.718Z,3.13
2018-09-29T03:49:19.032Z,3.03
2018-09-29T03:54:23.684Z,3.20
2018-09-29T03:59:28.146Z,3.20
2018-09-29T04:04:33.985Z,3.30
2018-09-29T04:09:39.402Z,2.97
2018-09-29T04:14:43.842Z,3.47
2018-09-29T04:19:53.674Z,3.10
2018-09-29T04:24:58.110Z,2.90
2018-09-29T04:30:02.714Z,3.23
2018-09-29T04:35:07.183Z,3.67
2018-09-29T04:40:12.430Z,2.97
2018-09-29T04:45:16.881Z,3.70
2018-09-29T04:50:21.239Z,3.70
2018-09-29T04:55:25.756Z,3.30
2018-09-29T05:00:30.074Z,3.50
2018-09-29T05:05:34.614Z,3.30
2018-09-29T05:10:38.995Z,3.20
2018-09-29T05:15:43.474Z,3.83
2018-09-29T05:20:48.078Z,3.20
2018-09-29T05:25:52.278Z,3.30
2018-09-29T05:30:56.601Z,3.50
2018-09-29T05:36:01.500Z,3.47
2018-09-29T05:41:05.763Z,3.53
2018-09-29T05:46:10.064Z,3.10
2018-09-29T05:51:14.431Z,3.77
2018-09-29T05:56:19.121Z,3.57
2018-09-29T06:01:28.468Z,3.90
2018-09-29T06:06:33.096Z,4.30
2018-09-29T06:11:37.836Z,4.20
2018-09-29T06:16:43.066Z,3.47
2018-09-29T06:21:47.409Z,4.97
2018-09-29T06:26:51.775Z,4.63
2018-09-29T06:31:55.944Z,3.93
2018-09-29T06:37:00.369Z,3.60
2018-09-29T06:42:05.333Z,4.10
2018-09-29T06:47:09.985Z,5.07
2018-09-29T06:52:15.541Z,5.53
2018-09-29T06:57:20.039Z,4.73
2018-09-29T07:02:24.415Z,4.40
2018-09-29T07:07:28.925Z,4.23
2018-09-29T07:12:33.500Z,3.87
2018-09-29T07:17:38.069Z,4.47
2018-09-29T07:22:42.458Z,4.27
2018-09-29T07:27:46.864Z,4.60
2018-09-29T07:32:51.350Z,4.37
2018-09-29T07:37:55.579Z,4.60
2018-09-29T07:42:59.935Z,4.10
2018-09-29T07:48:04.782Z,4.10
2018-09-29T07:53:09.636Z,5.70
2018-09-29T07:58:13.930Z,3.87
2018-09-29T08:03:18.428Z,4.60
2018-09-29T08:08:23.619Z,4.30
2018-09-29T08:13:28.118Z,4.33
2018-09-29T08:18:32.603Z,4.77
2018-09-29T08:23:37.141Z,4.30
2018-09-29T08:28:50.880Z,3.40
2018-09-29T08:34:02.605Z,4.10
2018-09-29T08:39:08.166Z,3.40
2018-09-29T08:44:12.354Z,3.90
2018-09-29T08:49:16.630Z,4.43
2018-09-29T08:54:21.077Z,3.83
2018-09-29T08:59:25.374Z,3.53
2018-09-29T09:04:29.673Z,3.57
2018-09-29T09:09:33.913Z,3.47
2018-09-29T09:14:38.401Z,2.93
2018-09-29T09:19:42.944Z,3.33
2018-09-29T09:24:47.334Z,2.87
2018-09-29T09:29:51.676Z,3.30
2018-09-29T09:34:56.001Z,3.37
2018-09-29T09:40:00.285Z,3.40
2018-09-29T10:51:03.628Z,3.83
2018-09-29T10:56:08.123Z,3.50
2018-09-29T11:01:12.570Z,3.08
2018-09-29T11:06:16.967Z,2.77
2018-09-29T11:11:21.334Z,2.70
2018-09-29T11:16:25.680Z,2.73
2018-09-29T11:21:29.972Z,2.90
2018-09-29T11:26:34.620Z,3.00
2018-09-29T11:31:39.133Z,2.90
2018-09-29T11:36:43.596Z,3.10
2018-09-29T11:41:48.016Z,2.43
2018-09-29T11:46:52.543Z,3.00
2018-09-29T11:51:57.331Z,2.40
2018-09-29T11:57:01.825Z,3.87
2018-09-29T12:02:06.486Z,2.73
2018-09-29T12:07:11.305Z,2.60
2018-09-29T12:12:15.679Z,2.30
2018-09-29T12:17:20.085Z,2.20
2018-09-29T12:22:29.734Z,2.60
2018-09-29T12:27:34.059Z,2.83
2018-09-29T12:32:38.483Z,2.90
2018-09-29T12:37:43.127Z,2.50
2018-09-29T12:42:47.933Z,2.20
2018-09-29T12:47:53.195Z,2.33
2018-09-29T12:52:58.029Z,2.50
2018-09-29T12:58:02.979Z,2.40
2018-09-29T13:03:08.619Z,2.37
2018-09-29T13:08:13.023Z,2.10
2018-09-29T13:13:18.207Z,2.23
2018-09-29T13:18:22.848Z,2.30
2018-09-29T13:23:27.322Z,1.85
2018-09-29T13:28:31.933Z,2.00
2018-09-29T13:33:36.607Z,1.98
2018-09-29T13:38:41.207Z,2.40
2018-09-29T13:43:45.745Z,2.02
2018-09-29T13:48:50.305Z,2.27
2018-09-29T13:53:54.789Z,1.97
2018-09-29T13:58:59.219Z,1.95
2018-09-29T14:04:04.011Z,2.08
2018-09-29T14:09:09.999Z,2.30
2018-09-29T14:14:14.390Z,1.80
2018-09-29T14:19:19.506Z,2.33
2018-09-29T14:24:24.767Z,2.40
2018-09-29T14:29:29.080Z,2.10
2018-09-29T14:34:33.276Z,1.90
2018-09-29T14:39:37.691Z,2.30
2018-09-29T14:44:42.027Z,2.10
2018-09-29T14:49:47.093Z,2.35
2018-09-29T14:54:51.613Z,2.75
2018-09-29T14:59:56.307Z,2.30
2018-09-29T15:05:00.608Z,2.50
2018-09-29T15:10:05.002Z,2.30
2018-09-29T15:15:09.405Z,2.25
2018-09-29T15:20:13.734Z,2.15
2018-09-29T15:25:18.280Z,2.50
2018-09-29T15:30:22.859Z,2.83
2018-09-29T15:35:27.155Z,2.60
2018-09-29T15:40:31.841Z,1.90
2018-09-29T15:45:36.476Z,2.17
2018-09-29T15:50:41.126Z,2.50
2018-09-29T15:55:45.879Z,2.45
2018-09-29T16:00:50.404Z,2.13
2018-09-29T16:05:54.707Z,2.47
2018-09-29T16:10:59.268Z,2.03
2018-09-29T16:16:03.665Z,2.30
2018-09-29T16:21:08.420Z,2.30
2018-09-29T16:26:12.721Z,2.30
2018-09-29T16:31:17.419Z,2.33
2018-09-29T16:36:21.693Z,2.50
2018-09-29T16:41:26.276Z,2.53
2018-09-29T16:46:31.436Z,3.20
2018-09-29T16:51:35.711Z,3.00
2018-09-29T16:56:40.128Z,3.00
2018-09-29T17:01:49.680Z,2.80
2018-09-29T17:06:54.210Z,3.03
2018-09-29T17:11:59.550Z,3.73
2018-09-29T17:17:04.692Z,3.40
2018-09-29T17:22:09.420Z,3.57
2018-09-29T17:27:13.700Z,3.50
2018-09-29T17:32:18.154Z,3.43
2018-09-29T17:37:22.785Z,3.23
2018-09-29T17:42:32.276Z,3.30
2018-09-29T17:47:37.884Z,3.07
2018-09-29T17:52:42.351Z,3.40
2018-09-29T17:57:47.697Z,2.83
2018-09-29T18:02:53.863Z,3.17
2018-09-29T18:07:59.271Z,3.40
2018-09-29T18:13:03.726Z,3.13
2018-09-29T18:18:08.291Z,3.60
2018-09-29T18:23:12.781Z,3.77
2018-09-29T18:28:17.263Z,4.27
2018-09-29T18:33:21.789Z,4.37
2018-09-29T18:38:26.557Z,4.67
2018-09-29T18:43:31.223Z,5.23
2018-09-29T18:48:35.841Z,4.47
2018-09-29T18:53:40.183Z,4.20
2018-09-29T18:58:49.644Z,4.43
2018-09-29T19:03:54.223Z,4.80
2018-09-29T19:08:59.049Z,4.97
2018-09-29T19:14:03.907Z,4.50
2018-09-29T19:19:08.632Z,4.43
2018-09-29T19:24:13.193Z,4.83
2018-09-29T19:29:17.695Z,5.83
2018-09-29T19:34:22.139Z,7.07
2018-09-29T19:39:26.706Z,8.43
2018-09-29T19:44:31.707Z,8.30
2018-09-29T19:49:36.245Z,8.50
2018-09-29T19:54:40.611Z,7.57
2018-09-29T19:59:44.943Z,7.50
2018-09-29T20:04:49.357Z,5.50
2018-09-29T20:09:53.487Z,5.20
2018-09-29T20:14:57.931Z,5.60
2018-09-29T20:20:02.665Z,4.90
2018-09-29T20:25:07.034Z,5.77
2018-09-29T20:30:11.371Z,5.07
2018-09-29T20:35:16.155Z,4.77
2018-09-29T20:40:21.013Z,5.33
2018-09-29T20:45:25.369Z,5.10
2018-09-29T20:50:29.605Z,4.60
2018-09-29T20:55:34.277Z,4.70
2018-09-29T21:00:43.687Z,5.37
2018-09-29T21:05:49.165Z,5.00
2018-09-29T21:10:53.799Z,5.20
2018-09-29T21:15:58.177Z,4.50
2018-09-29T21:21:02.867Z,4.40
2018-09-29T21:26:08.121Z,4.43
2018-09-29T21:31:12.398Z,5.00
2018-09-29T21:36:16.861Z,5.30
2018-09-29T21:41:21.238Z,4.60
2018-09-29T21:46:25.492Z,5.10
2018-09-29T21:51:29.708Z,4.93
2018-09-29T21:56:34.052Z,4.37
2018-09-29T22:01:38.584Z,3.53
2018-09-29T22:06:42.904Z,3.73
2018-09-29T22:11:47.375Z,4.13
2018-09-29T22:16:51.647Z,4.00
2018-09-29T22:21:55.929Z,4.20
2018-09-29T22:27:00.303Z,3.83
2018-09-29T22:32:04.797Z,3.90
2018-09-29T22:37:09.157Z,4.10
2018-09-29T22:42:13.556Z,4.00
2018-09-29T22:47:17.867Z,4.03
2018-09-29T22:52:22.073Z,3.60
2018-09-29T22:57:26.314Z,3.67
2018-09-29T23:02:31.486Z,3.43
2018-09-29T23:07:35.990Z,3.50
2018-09-29T23:12:40.293Z,3.20
2018-09-29T23:17:44.547Z,3.90
2018-09-29T23:22:48.842Z,4.17
2018-09-29T23:27:53.183Z,4.13
2018-09-29T23:32:57.541Z,4.13
2018-09-29T23:38:01.769Z,4.67
2018-09-29T23:43:05.995Z,5.03
2018-09-29T23:48:10.306Z,5.30
2018-09-29T23:53:14.653Z,5.70
2018-09-29T23:58:19.499Z,5.57
